createdAt,value
2018-09-02T00:02:04.472Z,955.36
2018-09-02T00:04:30.785Z,955.38
2018-09-02T00:06:57.146Z,955.37
2018-09-02T00:09:23.449Z,955.34
2018-09-02T00:11:49.775Z,955.32
2018-09-02T00:14:16.099Z,955.37
2018-09-02T00:16:42.494Z,955.35
2018-09-02T00:19:08.816Z,955.34
2018-09-02T00:21:35.145Z,955.40
2018-09-02T00:24:01.452Z,955.39
2018-09-02T00:26:27.775Z,955.42
2018-09-02T00:28:54.139Z,955.49
2018-09-02T00:31:20.459Z,955.54
2018-09-02T00:33:46.849Z,955.56
2018-09-02T00:36:13.114Z,955.61
2018-09-02T00:38:39.432Z,955.52
2018-09-02T00:41:05.759Z,955.56
2018-09-02T00:43:32.074Z,955.55
2018-09-02T00:45:58.391Z,955.55
2018-09-02T00:48:24.703Z,955.60
2018-09-02T00:50:51.029Z,955.58
2018-09-02T00:53:17.343Z,955.61
2018-09-02T00:55:43.655Z,955.60
2018-09-02T00:58:09.968Z,955.60
2018-09-02T01:00:36.279Z,955.61
2018-09-02T01:03:02.602Z,955.60
2018-09-02T01:05:28.919Z,955.60
2018-09-02T01:07:55.240Z,955.66
2018-09-02T01:10:21.561Z,955.64
2018-09-02T01:12:47.884Z,955.69
2018-09-02T01:15:14.209Z,955.76
2018-09-02T01:17:40.537Z,955.76
2018-09-02T01:20:06.861Z,955.78
2018-09-02T01:22:33.195Z,955.73
2018-09-02T01:24:59.519Z,955.70
2018-09-02T01:27:25.847Z,955.78
2018-09-02T01:29:52.180Z,955.74
2018-09-02T01:32:18.492Z,955.66
2018-09-02T01:34:44.813Z,955.74
2018-09-02T01:37:11.127Z,955.65
2018-09-02T01:39:37.437Z,955.75
2018-09-02T01:42:03.756Z,955.75
2018-09-02T01:44:30.081Z,955.69
2018-09-02T01:46:56.410Z,955.70
2018-09-02T01:49:22.740Z,955.70
2018-09-02T01:51:49.072Z,955.65
2018-09-02T01:54:15.388Z,955.61
2018-09-02T01:56:41.711Z,955.60
2018-09-02T01:59:08.034Z,955.57
2018-09-02T02:01:34.355Z,955.66
2018-09-02T02:04:00.672Z,955.75
2018-09-02T02:06:26.986Z,955.67
2018-09-02T02:08:53.310Z,955.73
2018-09-02T02:11:19.625Z,955.75
2018-09-02T02:13:45.938Z,955.73
2018-09-02T02:16:12.257Z,955.68
2018-09-02T02:18:38.621Z,955.72
2018-09-02T02:21:04.937Z,955.72
2018-09-02T02:23:31.254Z,955.68
2018-09-02T02:25:57.564Z,955.65
2018-09-02T02:28:23.879Z,955.64
2018-09-02T02:30:50.255Z,955.68
2018-09-02T02:33:16.574Z,955.66
2018-09-02T02:35:42.890Z,955.65
2018-09-02T02:38:09.211Z,955.61
2018-09-02T02:40:35.577Z,955.57
2018-09-02T02:43:01.906Z,955.68
2018-09-02T02:45:28.276Z,955.66
2018-09-02T02:47:54.592Z,955.71
2018-09-02T02:50:20.907Z,955.80
2018-09-02T02:52:47.267Z,955.74
2018-09-02T02:55:13.595Z,955.69
2018-09-02T02:57:39.909Z,955.77
2018-09-02T03:00:06.280Z,955.77
2018-09-02T03:02:32.610Z,955.73
2018-09-02T03:04:58.919Z,955.73
2018-09-02T03:07:25.247Z,955.77
2018-09-02T03:09:51.563Z,955.77
2018-09-02T03:12:17.884Z,955.84
2018-09-02T03:14:44.190Z,955.88
2018-09-02T03:17:10.500Z,955.80
2018-09-02T03:19:36.816Z,955.90
2018-09-02T03:22:03.197Z,955.87
2018-09-02T03:24:29.541Z,955.91
2018-09-02T03:26:55.824Z,955.87
2018-09-02T03:29:22.142Z,955.92
2018-09-02T03:31:49.683Z,955.94
2018-09-02T03:34:14.786Z,955.99
2018-09-02T03:36:41.109Z,956.03
2018-09-02T03:39:07.455Z,956.05
2018-09-02T03:41:33.817Z,956.13
2018-09-02T03:44:00.100Z,956.10
2018-09-02T03:46:26.423Z,956.13
2018-09-02T03:48:52.783Z,956.04
2018-09-02T03:51:19.097Z,955.99
2018-09-02T03:53:45.484Z,955.99
2018-09-02T03:56:11.819Z,956.07
2018-09-02T03:58:38.198Z,956.07
2018-09-02T04:01:04.519Z,956.10
2018-09-02T04:03:30.871Z,956.08
2018-09-02T04:05:57.203Z,956.14
2018-09-02T04:08:23.535Z,956.15
2018-09-02T04:10:49.854Z,956.16
2018-09-02T04:13:16.168Z,956.19
2018-09-02T04:15:42.506Z,956.19
2018-09-02T04:18:08.822Z,956.22
2018-09-02T04:20:35.186Z,956.24
2018-09-02T04:23:01.497Z,956.29
2018-09-02T04:25:27.824Z,956.24
2018-09-02T04:27:54.147Z,956.23
2018-09-02T04:30:20.539Z,956.21
2018-09-02T04:32:46.850Z,956.24
2018-09-02T04:35:13.167Z,956.29
2018-09-02T04:37:39.499Z,956.33
2018-09-02T04:40:05.815Z,956.37
2018-09-02T04:42:32.187Z,956.47
2018-09-02T04:44:58.508Z,956.42
2018-09-02T04:47:24.822Z,956.42
2018-09-02T04:49:51.186Z,956.39
2018-09-02T04:52:17.475Z,956.38
2018-09-02T04:54:43.805Z,956.32
2018-09-02T04:57:10.132Z,956.34
2018-09-02T04:59:36.434Z,956.37
2018-09-02T05:02:02.751Z,956.35
2018-09-02T05:04:29.071Z,956.35
2018-09-02T05:06:55.376Z,956.38
2018-09-02T05:09:21.708Z,956.30
2018-09-02T05:11:48.053Z,956.30
2018-09-02T05:14:14.482Z,956.30
2018-09-02T05:16:40.702Z,956.37
2018-09-02T05:19:07.007Z,956.32
2018-09-02T05:21:33.319Z,956.26
2018-09-02T05:23:59.640Z,956.28
2018-09-02T05:26:25.951Z,956.37
2018-09-02T05:28:52.271Z,956.31
2018-09-02T05:31:18.592Z,956.24
2018-09-02T05:33:44.966Z,956.22
2018-09-02T05:36:11.305Z,956.22
2018-09-02T05:38:37.634Z,956.20
2018-09-02T05:41:03.967Z,956.22
2018-09-02T05:43:30.290Z,956.24
2018-09-02T05:45:56.612Z,956.29
2018-09-02T05:48:22.933Z,956.25
2018-09-02T05:50:49.265Z,956.25
2018-09-02T05:53:15.582Z,956.27
2018-09-02T05:55:41.906Z,956.21
2018-09-02T05:58:08.228Z,956.19
2018-09-02T06:00:34.540Z,956.23
2018-09-02T06:03:00.850Z,956.30
2018-09-02T06:05:27.168Z,956.31
2018-09-02T06:07:53.487Z,956.33
2018-09-02T06:10:19.805Z,956.37
2018-09-02T06:12:46.159Z,956.48
2018-09-02T06:15:12.469Z,956.48
2018-09-02T06:17:38.797Z,956.47
2018-09-02T06:20:05.108Z,956.40
2018-09-02T06:22:31.429Z,956.40
2018-09-02T06:24:57.741Z,956.41
2018-09-02T06:27:24.099Z,956.41
2018-09-02T06:29:50.453Z,956.40
2018-09-02T06:32:16.781Z,956.46
2018-09-02T06:34:43.097Z,956.48
2018-09-02T06:37:09.425Z,956.43
2018-09-02T06:39:35.788Z,956.50
2018-09-02T06:42:02.069Z,956.50
2018-09-02T06:44:28.378Z,956.53
2018-09-02T06:46:54.774Z,956.54
2018-09-02T06:49:21.121Z,956.52
2018-09-02T06:51:47.422Z,956.55
2018-09-02T06:54:13.772Z,956.52
2018-09-02T06:56:40.073Z,956.51
2018-09-02T06:59:06.390Z,956.58
2018-09-02T07:01:32.712Z,956.63
2018-09-02T07:03:59.042Z,956.61
2018-09-02T07:06:25.399Z,956.57
2018-09-02T07:08:51.733Z,956.67
2018-09-02T07:11:18.062Z,956.70
2018-09-02T07:13:44.382Z,956.68
2018-09-02T07:16:10.700Z,956.68
2018-09-02T07:18:37.029Z,956.72
2018-09-02T07:21:03.358Z,956.72
2018-09-02T07:23:29.681Z,956.75
2018-09-02T07:25:56.012Z,956.66
2018-09-02T07:28:22.379Z,956.70
2018-09-02T07:30:48.709Z,956.67
2018-09-02T07:33:15.050Z,956.68
2018-09-02T07:35:41.403Z,956.70
2018-09-02T07:38:07.736Z,956.67
2018-09-02T07:40:34.050Z,956.69
2018-09-02T07:43:00.441Z,956.70
2018-09-02T07:45:26.736Z,956.71
2018-09-02T07:47:53.053Z,956.68
2018-09-02T07:50:19.373Z,956.66
2018-09-02T07:52:45.701Z,956.65
2018-09-02T07:55:12.017Z,956.60
2018-09-02T07:57:38.361Z,956.59
2018-09-02T08:00:04.672Z,956.51
2018-09-02T08:02:31.061Z,956.51
2018-09-02T08:04:57.327Z,956.48
2018-09-02T08:07:23.657Z,956.45
2018-09-02T08:09:50.021Z,956.41
2018-09-02T08:12:16.352Z,956.39
2018-09-02T08:14:42.691Z,956.40
2018-09-02T08:17:09.047Z,956.42
2018-09-02T08:19:35.324Z,956.43
2018-09-02T08:22:01.678Z,956.41
2018-09-02T08:24:28.021Z,956.41
2018-09-02T08:26:54.348Z,956.45
2018-09-02T08:29:20.666Z,956.43
2018-09-02T08:31:46.991Z,956.46
2018-09-02T08:34:13.359Z,956.48
2018-09-02T08:36:39.687Z,956.44
2018-09-02T08:39:06.014Z,956.44
2018-09-02T08:41:32.338Z,956.45
2018-09-02T08:43:58.712Z,956.47
2018-09-02T08:46:25.038Z,956.38
2018-09-02T08:48:51.454Z,956.41
2018-09-02T08:51:17.776Z,956.40
2018-09-02T08:53:44.112Z,956.36
2018-09-02T08:56:10.426Z,956.34
2018-09-02T08:58:36.735Z,956.28
2018-09-02T09:01:03.107Z,956.25
2018-09-02T09:03:29.430Z,956.20
2018-09-02T09:05:55.752Z,956.17
2018-09-02T09:08:22.119Z,956.14
2018-09-02T09:10:48.404Z,956.15
2018-09-02T09:13:14.762Z,956.13
2018-09-02T09:15:41.084Z,956.10
2018-09-02T09:18:07.397Z,956.10
2018-09-02T09:20:33.709Z,956.15
2018-09-02T09:23:00.024Z,956.15
2018-09-02T09:25:26.351Z,956.04
2018-09-02T09:27:52.776Z,956.01
2018-09-02T09:30:19.141Z,956.01
2018-09-02T09:32:45.454Z,956.03
2018-09-02T09:35:11.773Z,956.00
2018-09-02T09:37:38.120Z,956.04
2018-09-02T09:40:04.437Z,955.99
2018-09-02T09:42:30.767Z,956.12
2018-09-02T09:44:57.107Z,955.98
2018-09-02T09:47:23.433Z,955.81
2018-09-02T09:49:49.761Z,955.97
2018-09-02T09:52:16.093Z,956.11
2018-09-02T09:54:42.454Z,955.94
2018-09-02T09:57:08.763Z,956.20
2018-09-02T09:59:35.086Z,955.99
2018-09-02T10:02:01.401Z,955.97
2018-09-02T10:04:27.715Z,955.96
2018-09-02T10:06:54.052Z,955.84
2018-09-02T10:09:23.407Z,955.88
2018-09-02T10:11:49.796Z,955.80
2018-09-02T10:14:31.701Z,955.72
2018-09-02T10:16:51.614Z,955.93
2018-09-02T10:19:17.924Z,955.96
2018-09-02T10:21:44.270Z,955.72
2018-09-02T10:24:10.584Z,955.77
2018-09-02T10:26:36.896Z,955.73
2018-09-02T10:29:03.222Z,955.61
2018-09-02T10:31:29.553Z,955.67
2018-09-02T10:33:55.882Z,955.94
2018-09-02T10:36:22.196Z,955.63
2018-09-02T10:38:48.522Z,955.64
2018-09-02T10:41:14.969Z,955.60
2018-09-02T10:43:41.231Z,955.46
2018-09-02T10:46:07.544Z,955.66
2018-09-02T10:48:33.851Z,955.53
2018-09-02T10:51:00.187Z,955.47
2018-09-02T10:53:26.491Z,955.57
2018-09-02T10:55:52.819Z,955.43
2018-09-02T10:58:19.156Z,955.62
2018-09-02T11:00:45.480Z,955.50
2018-09-02T11:03:11.812Z,955.46
2018-09-02T11:05:38.115Z,955.32
2018-09-02T11:08:04.427Z,955.48
2018-09-02T11:10:30.741Z,955.36
2018-09-02T11:12:57.073Z,955.38
2018-09-02T11:15:23.363Z,955.21
2018-09-02T11:17:49.745Z,955.34
2018-09-02T11:20:16.130Z,955.32
2018-09-02T11:22:42.411Z,955.45
2018-09-02T11:25:08.724Z,955.30
2018-09-02T11:27:35.091Z,955.25
2018-09-02T11:30:01.423Z,955.22
2018-09-02T11:32:27.732Z,955.39
2018-09-02T11:34:54.057Z,955.14
2018-09-02T11:37:20.371Z,955.18
2018-09-02T11:39:46.698Z,955.18
2018-09-02T11:42:13.013Z,955.10
2018-09-02T11:44:39.359Z,955.14
2018-09-02T11:47:05.675Z,955.03
2018-09-02T11:49:31.981Z,955.25
2018-09-02T11:51:58.297Z,955.17
2018-09-02T11:54:24.621Z,955.08
2018-09-02T11:56:50.985Z,954.98
2018-09-02T11:59:17.310Z,955.00
2018-09-02T12:01:43.621Z,954.91
2018-09-02T12:04:09.951Z,954.95
2018-09-02T12:06:36.265Z,954.96
2018-09-02T12:09:02.632Z,955.18
2018-09-02T12:11:29.022Z,954.91
2018-09-02T12:13:55.544Z,954.81
2018-09-02T12:16:21.656Z,954.93
2018-09-02T12:18:47.966Z,955.03
2018-09-02T12:21:14.339Z,954.82
2018-09-02T12:23:40.653Z,954.83
2018-09-02T12:26:06.963Z,954.90
2018-09-02T12:28:33.313Z,954.82
2018-09-02T12:30:59.620Z,954.88
2018-09-02T12:33:25.947Z,954.68
2018-09-02T12:35:52.251Z,954.72
2018-09-02T12:38:18.621Z,954.68
2018-09-02T12:40:44.933Z,954.73
2018-09-02T12:43:11.287Z,954.70
2018-09-02T12:45:37.601Z,954.72
2018-09-02T12:48:03.984Z,954.59
2018-09-02T12:50:30.251Z,954.75
2018-09-02T12:52:56.894Z,954.76
2018-09-02T12:55:22.993Z,954.63
2018-09-02T12:57:49.239Z,954.75
2018-09-02T13:00:15.567Z,954.65
2018-09-02T13:02:41.901Z,954.67
2018-09-02T13:05:08.212Z,954.64
2018-09-02T13:07:34.550Z,954.53
2018-09-02T13:10:00.871Z,954.59
2018-09-02T13:12:27.198Z,954.59
2018-09-02T13:14:53.528Z,954.66
2018-09-02T13:17:19.855Z,954.55
2018-09-02T13:19:46.213Z,954.54
2018-09-02T13:22:12.529Z,954.65
2018-09-02T13:24:38.889Z,954.74
2018-09-02T13:27:05.169Z,954.58
2018-09-02T13:29:31.492Z,954.62
2018-09-02T13:31:57.801Z,954.56
2018-09-02T13:34:24.131Z,954.48
2018-09-02T13:36:50.475Z,954.46
2018-09-02T13:39:16.793Z,954.49
2018-09-02T13:41:43.162Z,954.47
2018-09-02T13:44:09.493Z,954.51
2018-09-02T13:46:35.811Z,954.54
2018-09-02T13:49:02.184Z,954.45
2018-09-02T13:51:28.574Z,954.39
2018-09-02T13:53:54.820Z,954.45
2018-09-02T13:56:21.147Z,954.30
2018-09-02T13:58:47.473Z,954.21
2018-09-02T14:01:14.049Z,954.21
2018-09-02T14:03:40.128Z,954.36
2018-09-02T14:06:06.453Z,954.27
2018-09-02T14:08:32.832Z,954.37
2018-09-02T14:10:59.159Z,954.34
2018-09-02T14:13:25.487Z,954.34
2018-09-02T14:15:51.809Z,954.38
2018-09-02T14:18:18.133Z,954.36
2018-09-02T14:20:44.462Z,954.25
2018-09-02T14:23:10.776Z,954.39
2018-09-02T14:25:37.089Z,954.36
2018-09-02T14:28:03.415Z,954.18
2018-09-02T14:30:29.742Z,954.24
2018-09-02T14:32:56.052Z,954.26
2018-09-02T14:35:22.414Z,954.19
2018-09-02T14:37:48.726Z,954.22
2018-09-02T14:40:15.031Z,954.24
2018-09-02T14:42:41.343Z,954.21
2018-09-02T14:45:07.709Z,954.24
2018-09-02T14:47:34.043Z,954.14
2018-09-02T14:50:00.353Z,954.26
2018-09-02T14:52:26.670Z,954.26
2018-09-02T14:54:53.001Z,954.18
2018-09-02T14:57:19.324Z,954.13
2018-09-02T14:59:45.676Z,954.13
2018-09-02T15:02:12.009Z,954.09
2018-09-02T15:04:38.338Z,954.13
2018-09-02T15:07:04.647Z,954.11
2018-09-02T15:09:30.974Z,954.14
2018-09-02T15:11:57.300Z,954.10
2018-09-02T15:14:23.627Z,954.14
2018-09-02T15:16:51.210Z,954.16
2018-09-02T15:19:17.535Z,954.14
2018-09-02T15:21:43.840Z,954.08
2018-09-02T15:24:10.169Z,954.09
2018-09-02T15:26:36.497Z,954.02
2018-09-02T15:29:02.843Z,954.01
2018-09-02T15:31:29.161Z,954.03
2018-09-02T15:33:55.468Z,954.01
2018-09-02T15:36:21.797Z,954.09
2018-09-02T15:38:48.161Z,954.05
2018-09-02T15:41:14.443Z,953.98
2018-09-02T15:43:40.778Z,954.07
2018-09-02T15:46:07.089Z,954.04
2018-09-02T15:48:33.401Z,953.97
2018-09-02T15:50:59.735Z,953.97
2018-09-02T15:53:26.122Z,953.96
2018-09-02T15:55:52.429Z,953.91
2018-09-02T15:58:19.820Z,953.92
2018-09-02T16:00:46.323Z,953.95
2018-09-02T16:03:12.886Z,953.94
2018-09-02T16:05:40.752Z,953.87
2018-09-02T16:08:06.390Z,953.89
2018-09-02T16:10:32.685Z,953.92
2018-09-02T16:12:59.291Z,953.90
2018-09-02T16:15:25.537Z,953.92
2018-09-02T16:17:51.847Z,953.87
2018-09-02T16:20:18.233Z,953.81
2018-09-02T16:22:44.880Z,953.84
2018-09-02T16:25:11.198Z,953.85
2018-09-02T16:27:37.509Z,953.88
2018-09-02T16:30:04.193Z,953.90
2018-09-02T16:32:30.566Z,953.94
2018-09-02T16:34:56.895Z,954.01
2018-09-02T16:37:23.208Z,954.00
2018-09-02T16:39:49.520Z,953.94
2018-09-02T16:42:15.880Z,953.99
2018-09-02T16:44:42.210Z,954.01
2018-09-02T16:47:08.522Z,954.04
2018-09-02T16:49:34.857Z,954.01
2018-09-02T16:52:01.169Z,953.99
2018-09-02T16:54:27.503Z,953.99
2018-09-02T16:56:53.830Z,953.95
2018-09-02T16:59:20.205Z,954.02
2018-09-02T17:01:46.535Z,953.95
2018-09-02T17:04:12.852Z,953.96
2018-09-02T17:06:39.164Z,953.97
2018-09-02T17:09:05.536Z,954.03
2018-09-02T17:11:31.908Z,954.05
2018-09-02T17:13:58.238Z,954.03
2018-09-02T17:16:24.607Z,954.08
2018-09-02T17:18:50.922Z,954.09
2018-09-02T17:21:17.292Z,954.16
2018-09-02T17:23:43.602Z,954.23
2018-09-02T17:26:09.981Z,954.19
2018-09-02T17:28:36.281Z,954.25
2018-09-02T17:31:02.589Z,954.24
2018-09-02T17:33:28.905Z,954.29
2018-09-02T17:35:55.220Z,954.27
2018-09-02T17:38:21.551Z,954.35
2018-09-02T17:40:47.865Z,954.36
2018-09-02T17:43:14.201Z,954.35
2018-09-02T17:45:40.571Z,954.40
2018-09-02T17:48:06.839Z,954.40
2018-09-02T17:50:33.167Z,954.44
2018-09-02T17:52:59.493Z,954.39
2018-09-02T17:55:25.886Z,954.46
2018-09-02T17:57:52.233Z,954.41
2018-09-02T18:00:18.559Z,954.54
2018-09-02T18:02:44.871Z,954.51
2018-09-02T18:05:11.214Z,954.53
2018-09-02T18:07:37.528Z,954.52
2018-09-02T18:10:03.862Z,954.53
2018-09-02T18:12:30.169Z,954.56
2018-09-02T18:14:56.496Z,954.51
2018-09-02T18:17:22.821Z,954.54
2018-09-02T18:19:49.135Z,954.54
2018-09-02T18:22:15.461Z,954.55
2018-09-02T18:24:41.790Z,954.55
2018-09-02T18:27:08.105Z,954.54
2018-09-02T18:29:34.433Z,954.49
2018-09-02T18:32:00.745Z,954.47
2018-09-02T18:34:27.065Z,954.55
2018-09-02T18:36:53.380Z,954.59
2018-09-02T18:39:19.815Z,954.58
2018-09-02T18:41:46.046Z,954.51
2018-09-02T18:44:12.380Z,954.59
2018-09-02T18:46:38.704Z,954.64
2018-09-02T18:49:05.025Z,954.56
2018-09-02T18:51:31.353Z,954.52
2018-09-02T18:53:57.681Z,954.54
2018-09-02T18:56:23.994Z,954.51
2018-09-02T18:58:50.373Z,954.53
2018-09-02T19:01:16.683Z,954.55
2018-09-02T19:03:43.014Z,954.51
2018-09-02T19:06:09.339Z,954.50
2018-09-02T19:08:35.705Z,954.53
2018-09-02T19:11:02.029Z,954.51
2018-09-02T19:13:28.379Z,954.51
2018-09-02T19:15:54.695Z,954.55
2018-09-02T19:18:21.242Z,954.56
2018-09-02T19:20:47.551Z,954.58
2018-09-02T19:23:13.860Z,954.49
2018-09-02T19:25:40.267Z,954.52
2018-09-02T19:28:06.563Z,954.49
2018-09-02T19:30:32.936Z,954.53
2018-09-02T19:32:59.247Z,954.48
2018-09-02T19:35:25.615Z,954.56
2018-09-02T19:37:51.932Z,954.50
2018-09-02T19:40:18.319Z,954.51
2018-09-02T19:42:44.580Z,954.53
2018-09-02T19:45:10.911Z,954.50
2018-09-02T19:47:37.244Z,954.55
2018-09-02T19:50:03.560Z,954.56
2018-09-02T19:52:29.885Z,954.51
2018-09-02T19:54:56.196Z,954.58
2018-09-02T19:57:22.503Z,954.53
2018-09-02T19:59:48.863Z,954.61
2018-09-02T20:02:15.178Z,954.56
2018-09-02T20:04:41.503Z,954.57
2018-09-02T20:07:07.834Z,954.55
2018-09-02T20:09:34.148Z,954.55
2018-09-02T20:12:00.475Z,954.52
2018-09-02T20:14:26.805Z,954.55
2018-09-02T20:16:53.125Z,954.53
2018-09-02T20:19:19.428Z,954.48
2018-09-02T20:21:45.759Z,954.41
2018-09-02T20:24:12.099Z,954.44
2018-09-02T20:26:38.430Z,954.51
2018-09-02T20:29:04.756Z,954.44
2018-09-02T20:31:31.063Z,954.42
2018-09-02T20:33:57.407Z,954.38
2018-09-02T20:36:23.784Z,954.39
2018-09-02T20:38:50.110Z,954.39
2018-09-02T20:41:16.416Z,954.40
2018-09-02T20:43:42.736Z,954.35
2018-09-02T20:46:09.051Z,954.46
2018-09-02T20:48:35.379Z,954.35
2018-09-02T20:51:01.719Z,954.45
2018-09-02T20:53:27.992Z,954.43
2018-09-02T20:55:54.302Z,954.35
2018-09-02T20:58:20.616Z,954.41
2018-09-02T21:00:46.950Z,954.39
2018-09-02T21:03:13.307Z,954.31
2018-09-02T21:05:39.662Z,954.40
2018-09-02T21:08:05.981Z,954.34
2018-09-02T21:10:32.323Z,954.41
2018-09-02T21:12:58.650Z,954.38
2018-09-02T21:15:24.985Z,954.35
2018-09-02T21:17:51.308Z,954.37
2018-09-02T21:20:17.798Z,954.40
2018-09-02T21:22:44.125Z,954.39
2018-09-02T21:25:10.443Z,954.34
2018-09-02T21:27:36.768Z,954.30
2018-09-02T21:30:04.733Z,954.31
2018-09-02T21:32:31.039Z,954.25
2018-09-02T21:34:57.359Z,954.23
2018-09-02T21:37:23.711Z,954.23
2018-09-02T21:39:50.024Z,954.23
2018-09-02T21:42:16.360Z,954.27
2018-09-02T21:44:42.724Z,954.24
2018-09-02T21:47:09.096Z,954.24
2018-09-02T21:49:35.519Z,954.25
2018-09-02T21:52:01.865Z,954.24
2018-09-02T21:54:28.175Z,954.22
2018-09-02T21:56:54.489Z,954.21
2018-09-02T21:59:20.821Z,954.31
2018-09-02T22:01:47.147Z,954.31
2018-09-02T22:04:13.557Z,954.29
2018-09-02T22:06:39.919Z,954.29
2018-09-02T22:09:06.310Z,954.30
2018-09-02T22:11:32.610Z,954.21
2018-09-02T22:13:58.938Z,954.28
2018-09-02T22:16:25.259Z,954.14
2018-09-02T22:18:51.583Z,954.17
2018-09-02T22:21:17.897Z,954.19
2018-09-02T22:23:44.229Z,954.15
2018-09-02T22:26:10.565Z,954.11
2018-09-02T22:28:36.895Z,954.13
2018-09-02T22:31:03.223Z,954.10
2018-09-02T22:33:29.553Z,954.11
2018-09-02T22:35:55.906Z,954.11
2018-09-02T22:38:22.331Z,954.03
2018-09-02T22:40:48.654Z,954.05
2018-09-02T22:43:14.986Z,954.05
2018-09-02T22:45:41.324Z,954.11
2018-09-02T22:48:07.651Z,954.01
2018-09-02T22:50:33.972Z,953.98
2018-09-02T22:53:00.315Z,954.06
2018-09-02T22:55:26.642Z,954.06
2018-09-02T22:57:53.022Z,953.98
2018-09-02T23:00:19.332Z,953.99
2018-09-02T23:02:45.660Z,954.00
2018-09-02T23:05:11.996Z,953.95
2018-09-02T23:07:38.318Z,953.99
2018-09-02T23:10:04.655Z,953.93
2018-09-02T23:12:30.975Z,953.93
2018-09-02T23:14:57.298Z,953.87
2018-09-02T23:17:23.639Z,953.92
2018-09-02T23:19:49.960Z,953.94
2018-09-02T23:22:16.293Z,953.91
2018-09-02T23:24:42.614Z,953.82
2018-09-02T23:27:08.943Z,953.78
2018-09-02T23:29:35.269Z,953.75
2018-09-02T23:32:01.647Z,953.75
2018-09-02T23:34:28.012Z,953.73
2018-09-02T23:36:54.326Z,953.80
2018-09-02T23:39:20.682Z,953.76
2018-09-02T23:41:46.998Z,953.80
2018-09-02T23:44:13.380Z,953.82
2018-09-02T23:46:39.704Z,953.74
2018-09-02T23:49:06.020Z,953.74
2018-09-02T23:51:32.349Z,953.73
2018-09-02T23:53:58.693Z,953.69
2018-09-02T23:56:25.017Z,953.71
2018-09-02T23:58:51.398Z,953.74
